createdAt,value
2019-04-16T00:01:00.530Z,4.10
2019-04-16T00:03:30.450Z,4.10
2019-04-16T00:06:16.858Z,4.20
2019-04-16T00:08:48.409Z,4.20
2019-04-16T00:11:20.025Z,4.20
2019-04-16T00:13:57.471Z,4.20
2019-04-16T00:16:27.377Z,4.20
2019-04-16T00:19:01.091Z,4.30
2019-04-16T00:21:38.491Z,4.30
2019-04-16T00:24:25.802Z,4.30
2019-04-16T00:26:59.348Z,4.30
2019-04-16T00:29:32.515Z,4.30
2019-04-16T00:32:00.630Z,4.40
2019-04-16T00:34:30.514Z,4.40
2019-04-16T00:37:01.492Z,4.40
2019-04-16T00:39:31.392Z,4.40
2019-04-16T00:42:01.273Z,4.40
2019-04-16T00:44:31.418Z,4.40
2019-04-16T00:47:01.444Z,4.40
2019-04-16T00:49:31.393Z,4.30
2019-04-16T00:52:05.679Z,4.30
2019-04-16T00:54:32.825Z,4.30
2019-04-16T00:57:02.703Z,4.40
2019-04-16T00:59:32.600Z,4.40
2019-04-16T01:02:02.510Z,4.40
2019-04-16T01:04:32.402Z,4.40
2019-04-16T01:07:02.503Z,4.40
2019-04-16T01:09:32.415Z,4.40
2019-04-16T01:12:02.328Z,4.40
2019-04-16T01:14:32.361Z,4.40
2019-04-16T01:17:05.078Z,4.40
2019-04-16T01:19:33.902Z,4.30
2019-04-16T01:22:03.887Z,4.40
2019-04-16T01:24:34.805Z,4.40
2019-04-16T01:27:04.666Z,4.40
2019-04-16T01:29:34.731Z,4.40
2019-04-16T01:32:22.367Z,4.50
2019-04-16T01:34:53.857Z,4.50
2019-04-16T01:37:26.546Z,4.50
2019-04-16T01:39:59.257Z,4.50
2019-04-16T01:42:29.136Z,4.50
2019-04-16T01:44:59.823Z,4.50
2019-04-16T01:47:33.327Z,4.50
2019-04-16T01:50:02.176Z,4.50
2019-04-16T01:52:32.066Z,4.40
2019-04-16T01:55:02.107Z,4.40
2019-04-16T01:57:32.081Z,4.40
2019-04-16T02:00:06.794Z,4.40
2019-04-16T02:02:34.211Z,4.30
2019-04-16T02:05:05.658Z,4.30
2019-04-16T02:07:35.579Z,4.30
2019-04-16T02:10:07.671Z,4.20
2019-04-16T02:12:37.961Z,4.20
2019-04-16T02:15:08.545Z,4.20
2019-04-16T02:17:38.587Z,4.20
2019-04-16T02:20:08.819Z,4.10
2019-04-16T02:22:38.720Z,4.10
2019-04-16T02:25:08.821Z,4.10
2019-04-16T02:27:38.690Z,4.10
2019-04-16T02:30:08.806Z,4.10
2019-04-16T02:32:38.707Z,4.10
2019-04-16T02:35:08.929Z,4.00
2019-04-16T02:37:38.874Z,4.00
2019-04-16T02:40:16.910Z,4.00
2019-04-16T02:42:41.593Z,3.90
2019-04-16T02:45:12.339Z,3.90
2019-04-16T02:47:42.560Z,3.90
2019-04-16T02:50:14.505Z,3.90
2019-04-16T02:52:55.305Z,3.90
2019-04-16T02:55:42.914Z,3.80
2019-04-16T02:58:14.898Z,3.90
2019-04-16T03:01:02.840Z,3.80
2019-04-16T03:03:40.404Z,3.90
2019-04-16T03:06:10.290Z,3.80
2019-04-16T03:08:40.198Z,3.80
2019-04-16T03:11:10.176Z,3.80
2019-04-16T03:13:40.370Z,3.70
2019-04-16T03:16:30.011Z,3.70
2019-04-16T03:19:07.223Z,3.60
2019-04-16T03:21:37.195Z,3.60
2019-04-16T03:24:09.082Z,3.60
2019-04-16T03:26:38.629Z,3.60
2019-04-16T03:29:08.503Z,3.60
2019-04-16T03:31:38.430Z,3.50
2019-04-16T03:34:08.567Z,3.50
2019-04-16T03:36:38.652Z,3.50
2019-04-16T03:39:12.245Z,3.50
2019-04-16T03:41:40.994Z,3.50
2019-04-16T03:44:10.867Z,3.50
2019-04-16T03:46:46.304Z,3.50
2019-04-16T03:49:12.404Z,3.40
2019-04-16T03:51:43.402Z,3.40
2019-04-16T03:54:13.304Z,3.40
2019-04-16T03:56:43.191Z,3.40
2019-04-16T03:59:13.242Z,3.50
2019-04-16T04:01:45.502Z,3.40
2019-04-16T04:04:14.777Z,3.40
2019-04-16T04:06:44.735Z,3.40
2019-04-16T04:09:14.614Z,3.40
2019-04-16T04:11:44.539Z,3.40
2019-04-16T04:14:14.455Z,3.50
2019-04-16T04:16:44.334Z,3.50
2019-04-16T04:19:15.762Z,3.50
2019-04-16T04:21:45.966Z,3.60
2019-04-16T04:24:15.879Z,3.60
2019-04-16T04:26:45.754Z,3.70
2019-04-16T04:29:15.840Z,3.70
2019-04-16T04:31:45.840Z,3.70
2019-04-16T04:34:17.396Z,3.70
2019-04-16T04:36:47.290Z,3.70
2019-04-16T04:39:17.270Z,3.80
2019-04-16T04:41:47.197Z,3.80
2019-04-16T04:44:17.255Z,3.90
2019-04-16T04:46:47.140Z,3.90
2019-04-16T04:49:17.175Z,3.90
2019-04-16T04:51:47.099Z,4.00
2019-04-16T04:54:22.045Z,4.10
2019-04-16T04:56:48.463Z,4.20
2019-04-16T04:59:18.416Z,4.20
2019-04-16T05:01:48.279Z,4.20
2019-04-16T05:04:22.682Z,4.30
2019-04-16T05:06:54.313Z,4.30
2019-04-16T05:09:29.027Z,4.30
2019-04-16T05:11:57.275Z,4.40
2019-04-16T05:14:27.194Z,4.50
2019-04-16T05:16:57.090Z,4.50
2019-04-16T05:19:26.950Z,4.60
2019-04-16T05:21:56.799Z,4.60
2019-04-16T05:24:29.206Z,4.60
2019-04-16T05:26:58.217Z,4.60
2019-04-16T05:29:28.110Z,4.60
2019-04-16T05:31:58.404Z,4.70
2019-04-16T05:34:28.475Z,4.80
2019-04-16T05:36:58.449Z,4.80
2019-04-16T05:39:28.673Z,4.90
2019-04-16T05:41:58.703Z,4.90
2019-04-16T05:44:32.805Z,5.00
2019-04-16T05:47:01.068Z,5.00
2019-04-16T05:49:30.951Z,5.10
2019-04-16T05:52:03.808Z,5.00
2019-04-16T05:54:36.409Z,5.20
2019-04-16T05:57:07.887Z,5.20
2019-04-16T05:59:37.757Z,5.20
2019-04-16T06:02:25.682Z,5.20
2019-04-16T06:04:56.481Z,5.20
2019-04-16T06:07:26.530Z,5.30
2019-04-16T06:09:56.469Z,5.50
2019-04-16T06:12:27.930Z,5.50
2019-04-16T06:14:59.386Z,5.60
2019-04-16T06:17:34.162Z,5.60
2019-04-16T06:20:23.605Z,5.60
2019-04-16T06:22:55.094Z,5.70
2019-04-16T06:25:40.889Z,5.70
2019-04-16T06:28:17.558Z,5.70
2019-04-16T06:30:48.983Z,5.70
2019-04-16T06:33:20.557Z,5.80
2019-04-16T06:36:01.093Z,5.90
2019-04-16T06:38:33.142Z,6.00
2019-04-16T06:41:05.904Z,6.00
2019-04-16T06:43:37.337Z,6.10
2019-04-16T06:46:25.293Z,6.10
2019-04-16T06:49:14.301Z,6.20
2019-04-16T06:52:02.507Z,6.30
2019-04-16T06:54:50.547Z,6.40
2019-04-16T06:57:40.392Z,6.50
2019-04-16T07:00:23.634Z,6.60
2019-04-16T07:03:02.501Z,6.50
2019-04-16T07:05:32.943Z,6.60
2019-04-16T07:08:20.446Z,6.70
2019-04-16T07:11:04.073Z,6.70
2019-04-16T07:13:33.945Z,6.80
2019-04-16T07:16:03.927Z,7.00
2019-04-16T07:18:35.581Z,7.10
2019-04-16T07:21:05.383Z,7.10
2019-04-16T07:23:35.418Z,7.30
2019-04-16T07:26:05.465Z,7.20
2019-04-16T07:28:58.553Z,7.20
2019-04-16T07:31:36.001Z,7.20
2019-04-16T07:34:07.596Z,7.30
2019-04-16T07:36:56.616Z,7.40
2019-04-16T07:39:37.149Z,7.50
2019-04-16T07:42:14.038Z,7.50
2019-04-16T07:44:59.872Z,7.50
2019-04-16T07:47:48.289Z,7.50
2019-04-16T07:50:37.222Z,7.70
2019-04-16T07:53:25.157Z,7.80
2019-04-16T07:55:56.715Z,7.90
2019-04-16T07:58:26.593Z,8.10
2019-04-16T08:00:56.486Z,8.10
2019-04-16T08:03:27.418Z,8.10
2019-04-16T08:05:58.526Z,8.10
2019-04-16T08:08:28.405Z,8.20
2019-04-16T08:10:58.324Z,8.20
2019-04-16T08:13:33.313Z,8.50
2019-04-16T08:16:01.404Z,8.40
2019-04-16T08:18:31.288Z,8.40
2019-04-16T08:21:08.980Z,8.60
2019-04-16T08:23:39.277Z,8.60
2019-04-16T08:26:13.320Z,8.70
2019-04-16T08:28:40.543Z,8.60
2019-04-16T08:31:12.888Z,8.70
2019-04-16T08:33:43.312Z,8.90
2019-04-16T08:36:13.258Z,9.10
2019-04-16T08:38:43.118Z,8.90
2019-04-16T08:41:13.412Z,9.10
2019-04-16T08:43:43.506Z,9.10
2019-04-16T08:46:13.438Z,9.30
2019-04-16T08:48:43.318Z,9.20
2019-04-16T08:51:14.178Z,9.30
2019-04-16T08:53:46.777Z,9.20
2019-04-16T08:56:15.582Z,9.30
2019-04-16T08:58:45.474Z,9.20
2019-04-16T09:01:18.821Z,9.20
2019-04-16T09:03:48.487Z,9.40
2019-04-16T09:06:18.419Z,10.00
2019-04-16T09:08:52.609Z,9.80
2019-04-16T09:11:23.499Z,9.70
2019-04-16T09:13:54.859Z,9.90
2019-04-16T09:16:24.830Z,9.90
2019-04-16T09:18:56.226Z,9.80
2019-04-16T09:21:27.977Z,9.90
2019-04-16T09:24:16.401Z,10.00
2019-04-16T09:26:52.712Z,10.00
2019-04-16T09:29:40.485Z,10.20
2019-04-16T09:32:24.701Z,10.40
2019-04-16T09:35:08.120Z,10.30
2019-04-16T09:37:35.732Z,10.60
2019-04-16T09:40:17.736Z,10.30
2019-04-16T09:42:43.030Z,10.60
2019-04-16T09:45:14.710Z,10.70
2019-04-16T09:47:44.651Z,10.70
2019-04-16T09:50:14.544Z,10.70
2019-04-16T09:52:44.515Z,10.80
2019-04-16T09:55:15.255Z,11.00
2019-04-16T09:57:49.013Z,10.90
2019-04-16T10:00:21.307Z,11.00
2019-04-16T10:02:51.466Z,11.20
2019-04-16T10:05:22.331Z,11.20
2019-04-16T10:07:52.315Z,11.60
2019-04-16T10:10:23.976Z,11.40
2019-04-16T10:12:53.755Z,11.40
2019-04-16T10:15:23.756Z,11.30
2019-04-16T10:17:53.638Z,11.50
2019-04-16T10:20:23.633Z,11.40
2019-04-16T10:22:54.496Z,11.50
2019-04-16T10:25:24.412Z,11.50
2019-04-16T10:27:55.914Z,11.60
2019-04-16T10:30:30.035Z,11.70
2019-04-16T10:32:59.991Z,11.90
2019-04-16T10:35:29.933Z,12.00
2019-04-16T10:38:01.413Z,12.20
2019-04-16T10:40:32.981Z,12.30
2019-04-16T10:43:20.603Z,12.40
2019-04-16T10:45:54.830Z,12.40
2019-04-16T10:48:41.631Z,12.60
2019-04-16T10:51:22.087Z,12.60
2019-04-16T10:53:53.783Z,12.80
2019-04-16T10:56:41.961Z,12.80
2019-04-16T10:59:29.829Z,12.80
2019-04-16T11:02:04.111Z,13.00
2019-04-16T11:04:43.040Z,13.00
2019-04-16T11:07:14.658Z,13.00
2019-04-16T11:09:44.596Z,12.90
2019-04-16T11:12:14.493Z,13.10
2019-04-16T11:14:44.408Z,13.10
2019-04-16T11:17:14.447Z,13.30
2019-04-16T11:19:44.304Z,13.40
2019-04-16T11:22:14.270Z,13.40
2019-04-16T11:24:44.347Z,13.40
2019-04-16T11:27:14.309Z,13.40
2019-04-16T11:29:45.383Z,13.50
2019-04-16T11:32:16.877Z,13.50
2019-04-16T11:34:46.726Z,13.50
2019-04-16T11:37:16.651Z,13.70
2019-04-16T11:39:46.600Z,13.80
2019-04-16T11:42:16.520Z,13.90
2019-04-16T11:44:46.475Z,14.00
2019-04-16T11:47:18.026Z,13.90
2019-04-16T11:49:48.007Z,14.10
2019-04-16T11:52:18.132Z,14.40
2019-04-16T11:54:48.112Z,14.40
2019-04-16T11:57:18.293Z,14.30
2019-04-16T11:59:48.215Z,14.40
2019-04-16T12:02:28.575Z,14.30
2019-04-16T12:05:00.091Z,14.20
2019-04-16T12:07:48.143Z,14.30
2019-04-16T12:10:36.063Z,14.60
2019-04-16T12:13:07.625Z,14.60
2019-04-16T12:15:39.090Z,14.70
2019-04-16T12:18:13.546Z,14.70
2019-04-16T12:20:45.070Z,14.90
2019-04-16T12:23:23.343Z,14.70
2019-04-16T12:25:54.823Z,14.90
2019-04-16T12:28:43.447Z,14.70
2019-04-16T12:31:31.677Z,15.10
2019-04-16T12:34:03.230Z,15.20
2019-04-16T12:36:50.932Z,15.30
2019-04-16T12:39:25.521Z,15.40
2019-04-16T12:42:00.347Z,15.40
2019-04-16T12:44:44.422Z,15.50
2019-04-16T12:47:05.096Z,15.50
2019-04-16T12:49:52.766Z,15.40
2019-04-16T12:52:36.177Z,15.50
2019-04-16T12:55:31.350Z,15.50
2019-04-16T12:58:06.661Z,15.60
2019-04-16T13:00:38.201Z,15.70
2019-04-16T13:03:16.429Z,15.70
2019-04-16T13:05:45.613Z,15.70
2019-04-16T13:08:17.092Z,15.70
2019-04-16T13:11:07.803Z,15.80
2019-04-16T13:13:53.874Z,15.60
2019-04-16T13:16:41.918Z,15.60
2019-04-16T13:19:13.587Z,15.60
2019-04-16T13:21:54.208Z,15.90
2019-04-16T13:24:28.696Z,16.00
2019-04-16T13:27:00.199Z,15.80
2019-04-16T13:29:30.841Z,15.60
2019-04-16T13:32:00.769Z,15.90
2019-04-16T13:34:30.753Z,16.10
2019-04-16T13:37:01.078Z,16.10
2019-04-16T13:39:33.670Z,16.00
2019-04-16T13:42:03.667Z,16.00
2019-04-16T13:44:37.725Z,16.30
2019-04-16T13:47:07.901Z,16.30
2019-04-16T13:49:48.815Z,16.20
2019-04-16T13:52:20.458Z,16.10
2019-04-16T13:55:10.632Z,16.20
2019-04-16T13:57:42.367Z,16.20
2019-04-16T14:00:14.062Z,16.10
2019-04-16T14:02:54.917Z,16.40
2019-04-16T14:05:24.773Z,16.40
2019-04-16T14:07:54.676Z,16.50
2019-04-16T14:10:24.629Z,16.30
2019-04-16T14:12:54.509Z,16.40
2019-04-16T14:15:32.272Z,16.60
2019-04-16T14:17:59.785Z,16.70
2019-04-16T14:20:29.271Z,16.50
2019-04-16T14:22:59.331Z,16.60
2019-04-16T14:25:29.201Z,16.40
2019-04-16T14:28:02.291Z,16.60
2019-04-16T14:30:32.383Z,16.30
2019-04-16T14:33:02.320Z,16.40
2019-04-16T14:35:34.121Z,16.70
2019-04-16T14:38:04.258Z,16.80
2019-04-16T14:40:34.268Z,16.80
2019-04-16T14:43:04.174Z,16.70
2019-04-16T14:45:57.500Z,16.70
2019-04-16T14:48:18.806Z,16.50
2019-04-16T14:50:48.687Z,16.60
2019-04-16T14:53:20.250Z,16.70
2019-04-16T14:55:59.994Z,16.60
2019-04-16T14:58:42.765Z,16.80
2019-04-16T15:01:26.347Z,16.80
2019-04-16T15:04:01.832Z,16.80
2019-04-16T15:06:36.052Z,16.90
2019-04-16T15:09:17.986Z,17.00
2019-04-16T15:12:08.561Z,17.00
2019-04-16T15:14:40.318Z,16.90
2019-04-16T15:17:13.212Z,16.80
2019-04-16T15:19:47.997Z,16.80
2019-04-16T15:22:29.345Z,16.70
2019-04-16T15:25:17.051Z,16.80
2019-04-16T15:27:57.881Z,16.70
2019-04-16T15:30:44.653Z,16.90
2019-04-16T15:33:21.873Z,16.90
2019-04-16T15:36:02.481Z,16.70
2019-04-16T15:38:43.104Z,16.60
2019-04-16T15:41:20.538Z,16.60
2019-04-16T15:44:08.442Z,16.60
2019-04-16T15:46:41.353Z,16.50
2019-04-16T15:49:22.880Z,16.50
2019-04-16T15:51:55.377Z,16.40
2019-04-16T15:54:35.777Z,16.10
2019-04-16T15:57:23.256Z,15.90
2019-04-16T15:59:57.723Z,16.00
2019-04-16T16:02:45.437Z,15.90
2019-04-16T16:05:23.168Z,15.80
2019-04-16T16:07:56.583Z,15.50
2019-04-16T16:10:28.028Z,15.40
2019-04-16T16:12:58.054Z,15.20
2019-04-16T16:15:27.924Z,15.10
2019-04-16T16:17:57.843Z,15.00
2019-04-16T16:20:27.765Z,14.90
2019-04-16T16:22:59.390Z,14.80
2019-04-16T16:25:29.201Z,14.70
2019-04-16T16:27:59.105Z,14.60
2019-04-16T16:30:29.054Z,14.50
2019-04-16T16:32:58.911Z,14.40
2019-04-16T16:35:28.833Z,14.30
2019-04-16T16:37:58.799Z,14.10
2019-04-16T16:40:28.653Z,14.10
2019-04-16T16:42:58.791Z,14.00
2019-04-16T16:45:33.022Z,13.90
2019-04-16T16:48:03.245Z,13.90
2019-04-16T16:50:33.149Z,13.80
2019-04-16T16:53:04.896Z,13.80
2019-04-16T16:55:36.598Z,13.70
2019-04-16T16:58:08.440Z,13.70
2019-04-16T17:00:49.246Z,13.60
2019-04-16T17:03:20.770Z,13.60
2019-04-16T17:05:51.774Z,13.50
2019-04-16T17:08:21.857Z,13.40
2019-04-16T17:10:51.763Z,13.40
2019-04-16T17:13:21.702Z,13.30
2019-04-16T17:15:51.703Z,13.20
2019-04-16T17:18:21.650Z,13.20
2019-04-16T17:20:51.550Z,13.10
2019-04-16T17:23:25.269Z,13.10
2019-04-16T17:25:53.046Z,13.00
2019-04-16T17:28:23.003Z,12.90
2019-04-16T17:30:53.469Z,12.90
2019-04-16T17:33:24.607Z,12.70
2019-04-16T17:35:55.495Z,12.70
2019-04-16T17:38:25.571Z,12.70
2019-04-16T17:41:03.445Z,12.60
2019-04-16T17:43:34.994Z,12.60
2019-04-16T17:46:18.761Z,12.50
2019-04-16T17:48:59.726Z,12.40
2019-04-16T17:51:47.848Z,12.20
2019-04-16T17:54:19.386Z,12.20
2019-04-16T17:57:07.180Z,12.20
2019-04-16T17:59:50.837Z,12.20
2019-04-16T18:02:27.713Z,12.10
2019-04-16T18:04:58.158Z,12.00
2019-04-16T18:07:35.643Z,11.80
2019-04-16T18:10:11.679Z,11.90
2019-04-16T18:12:58.461Z,11.80
2019-04-16T18:15:45.103Z,11.70
2019-04-16T18:18:28.785Z,11.60
2019-04-16T18:21:03.233Z,11.60
2019-04-16T18:23:34.741Z,11.60
2019-04-16T18:26:22.658Z,11.50
2019-04-16T18:29:10.295Z,11.40
2019-04-16T18:31:56.348Z,11.40
2019-04-16T18:34:44.396Z,11.40
2019-04-16T18:37:28.186Z,11.30
2019-04-16T18:39:59.738Z,11.20
2019-04-16T18:42:31.370Z,11.10
2019-04-16T18:45:05.552Z,11.10
2019-04-16T18:48:01.073Z,11.10
2019-04-16T18:50:22.382Z,10.90
2019-04-16T18:52:51.169Z,10.90
2019-04-16T18:55:21.153Z,10.90
2019-04-16T18:57:51.071Z,10.80
2019-04-16T19:00:31.400Z,10.70
2019-04-16T19:03:00.073Z,10.70
2019-04-16T19:05:29.971Z,10.60
2019-04-16T19:08:01.039Z,10.60
2019-04-16T19:10:31.627Z,10.60
2019-04-16T19:13:09.006Z,10.50
2019-04-16T19:15:34.048Z,10.40
2019-04-16T19:18:18.368Z,10.40
2019-04-16T19:20:35.476Z,10.30
2019-04-16T19:23:05.506Z,10.20
2019-04-16T19:25:35.346Z,10.00
2019-04-16T19:28:06.851Z,10.00
2019-04-16T19:30:36.955Z,10.00
2019-04-16T19:33:06.842Z,9.90
2019-04-16T19:35:36.776Z,10.00
2019-04-16T19:38:07.522Z,9.90
2019-04-16T19:40:37.795Z,9.90
2019-04-16T19:43:08.641Z,9.90
2019-04-16T19:45:40.694Z,9.80
2019-04-16T19:48:10.018Z,9.70
2019-04-16T19:50:39.925Z,9.70
2019-04-16T19:53:13.686Z,9.70
2019-04-16T19:55:45.599Z,9.60
2019-04-16T19:58:12.832Z,9.60
2019-04-16T20:00:43.772Z,9.50
2019-04-16T20:03:13.620Z,9.50
2019-04-16T20:05:43.487Z,9.30
2019-04-16T20:08:13.391Z,9.30
2019-04-16T20:10:44.375Z,9.30
2019-04-16T20:13:15.348Z,9.30
2019-04-16T20:15:45.215Z,9.30
2019-04-16T20:18:16.943Z,9.30
2019-04-16T20:20:47.085Z,9.20
2019-04-16T20:23:18.339Z,9.20
2019-04-16T20:25:48.194Z,9.20
2019-04-16T20:28:18.095Z,9.10
2019-04-16T20:30:47.973Z,9.00
2019-04-16T20:33:17.906Z,9.00
2019-04-16T20:35:50.331Z,9.10
2019-04-16T20:38:19.284Z,9.00
2019-04-16T20:40:49.171Z,8.90
2019-04-16T20:43:19.135Z,8.90
2019-04-16T20:45:50.035Z,8.90
2019-04-16T20:48:19.907Z,8.90
2019-04-16T20:50:52.704Z,8.80
2019-04-16T20:53:21.321Z,8.70
2019-04-16T20:55:51.258Z,8.60
2019-04-16T20:58:21.107Z,8.60
2019-04-16T21:00:52.617Z,8.70
2019-04-16T21:03:22.887Z,8.70
2019-04-16T21:05:59.237Z,8.60
2019-04-16T21:08:25.347Z,8.60
2019-04-16T21:10:58.647Z,8.50
2019-04-16T21:13:27.101Z,8.50
2019-04-16T21:16:01.140Z,8.40
2019-04-16T21:18:28.491Z,8.50
2019-04-16T21:20:58.359Z,8.40
2019-04-16T21:23:28.239Z,8.30
2019-04-16T21:25:58.175Z,8.40
2019-04-16T21:28:29.643Z,8.30
2019-04-16T21:31:01.236Z,8.20
2019-04-16T21:33:41.695Z,8.20
2019-04-16T21:36:13.186Z,8.10
2019-04-16T21:38:47.575Z,8.10
2019-04-16T21:41:17.495Z,8.00
2019-04-16T21:43:47.375Z,8.00
2019-04-16T21:46:20.189Z,7.90
2019-04-16T21:48:48.856Z,8.00
2019-04-16T21:51:21.017Z,7.90
2019-04-16T21:53:50.280Z,7.90
2019-04-16T21:56:20.179Z,7.80
2019-04-16T21:58:50.390Z,7.80
2019-04-16T22:01:21.955Z,7.80
2019-04-16T22:03:53.440Z,7.80
2019-04-16T22:06:23.439Z,7.70
2019-04-16T22:08:53.358Z,7.60
2019-04-16T22:11:23.266Z,7.60
2019-04-16T22:13:53.240Z,7.60
2019-04-16T22:16:23.142Z,7.60
2019-04-16T22:18:53.036Z,7.60
2019-04-16T22:21:22.931Z,7.60
2019-04-16T22:23:52.839Z,7.50
2019-04-16T22:26:22.715Z,7.50
2019-04-16T22:28:52.584Z,7.40
2019-04-16T22:31:23.742Z,7.30
2019-04-16T22:33:53.980Z,7.30
2019-04-16T22:36:23.835Z,7.30
2019-04-16T22:38:55.337Z,7.20
2019-04-16T22:41:27.339Z,7.10
2019-04-16T22:44:16.499Z,7.00
2019-04-16T22:46:56.915Z,7.10
2019-04-16T22:49:26.795Z,7.00
2019-04-16T22:51:56.652Z,7.00
2019-04-16T22:54:26.542Z,6.90
2019-04-16T22:57:04.049Z,6.80
2019-04-16T22:59:39.002Z,6.80
2019-04-16T23:02:07.155Z,6.70
2019-04-16T23:04:37.125Z,6.70
2019-04-16T23:07:08.338Z,6.70
2019-04-16T23:09:38.823Z,6.60
2019-04-16T23:12:08.968Z,6.60
2019-04-16T23:14:39.183Z,6.60
2019-04-16T23:17:13.174Z,6.60
2019-04-16T23:19:40.584Z,6.60
2019-04-16T23:22:14.170Z,6.50
2019-04-16T23:24:42.020Z,6.50
2019-04-16T23:27:11.883Z,6.50
2019-04-16T23:29:44.491Z,6.50
2019-04-16T23:32:13.249Z,6.40
2019-04-16T23:34:43.154Z,6.30
2019-04-16T23:37:13.047Z,6.30
2019-04-16T23:39:42.947Z,6.20
2019-04-16T23:42:12.877Z,6.20
2019-04-16T23:45:00.872Z,6.20
2019-04-16T23:47:48.863Z,6.10
2019-04-16T23:50:44.223Z,6.00
2019-04-16T23:53:12.103Z,6.00
2019-04-16T23:55:52.447Z,5.90
2019-04-16T23:58:28.542Z,5.80
